Time;durP1;ratioP1;P1;durP2;ratioP2;P2;SDS_P1;SDS_P2;PMS_P1;PMS_P2;Temp;Humidity;BMP_temperature;BMP_pressure;BME280_temperature;BME280_humidity;BME280_pressure;Samples;Min_cycle;Max_cycle;Signal;HPM_P1;HPM_P2
2023/08/12 00:01:45;;;;;;;9.70;6.85;;;;;;;20.20;99.86;101671.13;4994186;28;20106;-91
2023/08/12 00:04:14;;;;;;;11.15;7.45;;;;;;;20.20;99.76;101676.41;4991435;28;20382;-92
2023/08/12 00:06:39;;;;;;;9.98;7.07;;;;;;;20.19;99.82;101674.69;4992515;28;20038;-92
2023/08/12 00:09:05;;;;;;;10.98;7.35;;;;;;;20.17;100.00;101674.75;4993536;28;20022;-90
2023/08/12 00:11:30;;;;;;;11.00;7.65;;;;;;;20.16;100.00;101667.78;4984180;28;20470;-92
2023/08/12 00:13:55;;;;;;;12.00;8.07;;;;;;;;;;4992396;28;20068;-91
2023/08/12 00:16:20;;;;;;;10.68;7.05;;;;;;;20.12;100.00;101668.88;4993725;28;20026;-93
2023/08/12 00:18:46;;;;;;;10.23;7.30;;;;;;;20.11;100.00;101675.09;4993258;28;20487;-91
2023/08/12 00:21:11;;;;;;;12.45;7.68;;;;;;;20.10;100.00;101678.69;4992747;28;20026;-92
2023/08/12 00:23:43;;;;;;;11.15;7.43;;;;;;;20.11;100.00;101674.22;4992840;28;20117;-90
2023/08/12 00:26:08;;;;;;;;;;;;;;;20.15;98.10;101676.63;4991830;28;20022;-90
2023/08/12 00:28:33;;;;;;;9.80;7.10;;;;;;;20.13;100.00;101670.59;4988023;28;19921;-90
2023/08/12 00:30:59;;;;;;;9.25;7.18;;;;;;;20.11;100.00;101661.91;4987510;28;20482;-90
2023/08/12 00:33:24;;;;;;;10.55;7.40;;;;;;;20.12;100.00;101655.69;4992588;28;20030;-92
2023/08/12 00:35:49;;;;;;;9.90;7.72;;;;;;;20.10;100.00;101654.91;4987940;28;20037;-92
2023/08/12 00:38:15;;;;;;;11.45;7.93;;;;;;;20.11;100.00;101650.47;4979874;28;20077;-91
2023/08/12 00:40:40;;;;;;;11.40;8.27;;;;;;;20.10;100.00;101646.13;4988979;28;20125;-91
2023/08/12 00:43:05;;;;;;;12.43;8.48;;;;;;;20.10;100.00;101646.97;4993152;28;20385;-92
2023/08/12 00:45:31;;;;;;;12.70;8.60;;;;;;;20.10;100.00;101641.69;4991077;28;20113;-91
2023/08/12 00:47:57;;;;;;;10.77;7.97;;;;;;;20.10;100.00;101638.19;4990155;28;20053;-91
2023/08/12 00:50:22;;;;;;;12.57;8.05;;;;;;;20.11;100.00;101631.97;4988147;28;20501;-91
2023/08/12 00:52:49;;;;;;;11.57;8.43;;;;;;;20.09;100.00;101629.44;4982437;28;20034;-92
2023/08/12 00:55:15;;;;;;;11.57;8.27;;;;;;;20.10;100.00;101630.25;4988008;28;20030;-92
2023/08/12 00:57:40;;;;;;;14.43;8.48;;;;;;;20.09;100.00;101634.72;4991414;28;20033;-91
2023/08/12 01:00:06;;;;;;;12.95;8.82;;;;;;;20.08;100.00;101632.13;4992995;28;20061;-92
2023/08/12 01:02:33;;;;;;;13.68;8.77;;;;;;;20.07;100.00;101631.28;4980184;28;20493;-91
2023/08/12 01:04:58;;;;;;;13.13;8.77;;;;;;;20.05;100.00;101625.22;4991721;28;20032;-91
2023/08/12 01:07:24;;;;;;;11.85;9.23;;;;;;;20.05;100.00;101622.59;4992075;28;20437;-92
2023/08/12 01:09:49;;;;;;;14.23;9.75;;;;;;;20.04;100.00;101620.88;4970956;28;20026;-92
2023/08/12 01:12:31;;;;;;;12.13;9.10;;;;;;;20.04;100.00;101623.53;4986796;28;20026;-91
2023/08/12 01:15:12;;;;;;;12.60;8.93;;;;;;;20.02;100.00;101613.06;4986989;28;20035;-90
2023/08/12 01:17:41;;;;;;;15.77;8.85;;;;;;;20.00;100.00;101612.28;4981883;28;20026;-92
2023/08/12 01:20:08;;;;;;;11.13;8.90;;;;;;;19.99;100.00;101612.34;4990773;28;20397;-90
2023/08/12 01:22:39;;;;;;;11.70;9.32;;;;;;;20.00;100.00;101599.06;4984656;28;20026;-91
2023/08/12 01:25:05;;;;;;;12.07;8.90;;;;;;;20.01;100.00;101602.56;4990822;28;20029;-91
2023/08/12 01:27:30;;;;;;;12.20;9.25;;;;;;;20.00;100.00;101593.78;4990911;28;20026;-91
2023/08/12 01:29:55;;;;;;;13.52;9.75;;;;;;;19.99;100.00;101584.16;4982649;28;20167;-91
2023/08/12 01:32:33;;;;;;;11.45;8.73;;;;;;;19.99;100.00;101584.16;4983758;28;20074;-91
2023/08/12 01:35:08;;;;;;;12.57;9.38;;;;;;;19.99;100.00;101584.16;4990124;28;20122;-86
2023/08/12 01:37:36;;;;;;;11.48;9.02;;;;;;;19.97;100.00;101580.75;4991594;28;20030;-90
2023/08/12 01:40:04;;;;;;;13.30;9.57;;;;;;;19.96;100.00;101575.56;4996541;28;20055;-92
2023/08/12 01:42:31;;;;;;;12.82;9.23;;;;;;;19.95;100.00;101579.13;4970425;28;20039;-90
2023/08/12 01:44:56;;;;;;;15.65;10.00;;;;;;;19.94;100.00;101567.69;4972597;28;20025;-90
2023/08/12 01:47:21;;;;;;;12.85;9.60;;;;;;;19.94;100.00;101567.69;4968463;28;20077;-92
2023/08/12 01:49:47;;;;;;;13.32;9.43;;;;;;;19.93;100.00;101571.28;4970184;28;20118;-92
2023/08/12 01:52:12;;;;;;;13.77;9.73;;;;;;;19.92;100.00;101566.94;4971533;28;20035;-91
2023/08/12 01:54:37;;;;;;;12.25;9.25;;;;;;;19.87;100.00;101568.97;4972414;28;20038;-91
2023/08/12 01:57:08;;;;;;;13.30;9.15;;;;;;;19.86;100.00;101570.72;4958575;28;20109;-92
2023/08/12 01:59:37;;;;;;;;;;;;;;;19.91;100.00;101574.94;4968561;28;20031;-92
2023/08/12 02:02:02;;;;;;;10.50;7.57;;;;;;;19.86;100.00;101573.34;4959073;28;19925;-91
2023/08/12 02:04:28;;;;;;;13.18;8.20;;;;;;;19.85;100.00;101566.38;4971057;28;20031;-92
2023/08/12 02:06:54;;;;;;;11.48;8.50;;;;;;;19.83;100.00;101557.69;4963687;28;20498;-92
2023/08/12 02:09:20;;;;;;;12.52;8.60;;;;;;;19.83;100.00;101560.31;4968316;28;20031;-91
2023/08/12 02:11:45;;;;;;;12.02;8.23;;;;;;;19.82;100.00;101563.88;4971709;28;20023;-90
2023/08/12 02:14:11;;;;;;;14.52;8.27;;;;;;;19.82;100.00;101557.78;4968774;28;20399;-91
2023/08/12 02:16:36;;;;;;;11.55;7.95;;;;;;;19.80;100.00;101557.00;4961889;28;20038;-91
2023/08/12 02:19:01;;;;;;;10.88;8.00;;;;;;;19.80;100.00;101555.22;4963771;28;20034;-91
2023/08/12 02:21:27;;;;;;;11.68;7.57;;;;;;;19.80;100.00;101549.06;4972018;28;20027;-92
2023/08/12 02:23:52;;;;;;;9.65;7.25;;;;;;;19.80;100.00;101554.34;4969922;28;20035;-92
2023/08/12 02:26:17;;;;;;;11.35;7.65;;;;;;;19.79;100.00;101555.28;4962025;28;20047;-91
2023/08/12 02:28:42;;;;;;;9.82;7.15;;;;;;;19.78;100.00;101551.81;4971898;28;20027;-91
2023/08/12 02:31:08;;;;;;;11.02;6.93;;;;;;;19.76;100.00;101548.41;4972034;28;20042;-92
2023/08/12 02:33:33;;;;;;;12.73;7.68;;;;;;;19.76;100.00;101548.41;4972849;28;20031;-89
2023/08/12 02:35:58;;;;;;;8.50;6.50;;;;;;;19.75;100.00;101546.69;4971401;28;20033;-91
2023/08/12 02:38:24;;;;;;;10.90;6.90;;;;;;;19.74;100.00;101544.97;4972121;28;20026;-91
2023/08/12 02:40:50;;;;;;;9.07;6.65;;;;;;;19.75;100.00;101536.13;4971511;28;20376;-91
2023/08/12 02:43:16;;;;;;;9.70;6.82;;;;;;;19.75;100.00;101538.78;4985476;28;20030;-91
2023/08/12 02:45:41;;;;;;;11.45;6.65;;;;;;;19.74;100.00;101534.41;4990845;28;20096;-90
2023/08/12 02:48:07;;;;;;;10.90;6.85;;;;;;;19.74;100.00;101528.28;4988683;28;20462;-91
2023/08/12 02:50:32;;;;;;;9.80;6.43;;;;;;;19.74;100.00;101529.13;4994338;28;20433;-90
2023/08/12 02:52:57;;;;;;;9.68;6.85;;;;;;;19.73;100.00;101524.78;4987114;28;20027;-91
2023/08/12 02:55:22;;;;;;;10.50;7.28;;;;;;;19.74;100.00;101518.59;4992504;28;20032;-92
2023/08/12 02:57:48;;;;;;;9.95;6.47;;;;;;;19.75;100.00;101519.41;4991971;28;20033;-92
2023/08/12 03:00:13;;;;;;;10.18;6.95;;;;;;;19.73;100.00;101516.03;4993932;28;20022;-92
2023/08/12 03:02:42;;;;;;;9.75;6.93;;;;;;;19.72;100.00;101512.53;4992572;28;20065;-91
2023/08/12 03:05:07;;;;;;;9.93;6.40;;;;;;;19.72;100.00;101509.88;4985923;28;20026;-89
2023/08/12 03:07:33;;;;;;;11.05;7.32;;;;;;;19.70;100.00;101504.69;4992244;28;21558;-92
2023/08/12 03:09:58;;;;;;;11.20;7.13;;;;;;;19.70;100.00;101506.47;4988358;28;20026;-91
2023/08/12 03:12:23;;;;;;;8.60;6.07;;;;;;;19.69;100.00;101510.91;4990202;28;20446;-91
2023/08/12 03:14:48;;;;;;;8.30;6.18;;;;;;;19.67;100.00;101502.22;4993275;28;20022;-91
2023/08/12 03:17:14;;;;;;;9.93;6.57;;;;;;;19.67;100.00;101504.00;4983313;28;20034;-91
2023/08/12 03:19:39;;;;;;;9.88;6.47;;;;;;;19.65;100.00;101485.59;4988980;28;20512;-92
2023/08/12 03:22:04;;;;;;;10.20;6.68;;;;;;;19.65;100.00;101487.38;4992849;28;20054;-90
2023/08/12 03:24:29;;;;;;;9.35;5.97;;;;;;;19.66;100.00;101494.38;4992860;28;20024;-91
2023/08/12 03:26:55;;;;;;;8.15;6.07;;;;;;;19.65;100.00;101492.66;4992322;28;20031;-92
2023/08/12 03:29:20;;;;;;;8.68;5.97;;;;;;;19.63;100.00;101486.63;4992978;28;20034;-92
2023/08/12 03:31:46;;;;;;;11.23;6.00;;;;;;;19.62;100.00;101484.94;4985715;28;20470;-91
2023/08/12 03:34:11;;;;;;;8.63;5.35;;;;;;;19.60;100.00;101478.88;4992643;28;20034;-92
2023/08/12 03:36:36;;;;;;;9.85;6.00;;;;;;;19.59;100.00;101477.19;4993115;28;20381;-91
2023/08/12 03:39:02;;;;;;;8.30;5.97;;;;;;;19.56;100.00;101467.63;4987316;28;20089;-91
2023/08/12 03:41:27;;;;;;;9.30;5.90;;;;;;;19.54;100.00;101473.00;5002723;28;20050;-92
2023/08/12 03:43:53;;;;;;;8.43;5.45;;;;;;;19.53;100.00;101473.91;4998864;28;20517;-93
2023/08/12 03:46:18;;;;;;;9.65;5.78;;;;;;;19.52;100.00;101477.50;4987000;28;20050;-92
2023/08/12 03:48:43;;;;;;;8.63;5.97;;;;;;;19.52;100.00;101474.84;4994858;28;20371;-91
2023/08/12 03:51:08;;;;;;;9.45;5.75;;;;;;;19.51;100.00;101465.22;4969231;28;20031;-91
2023/08/12 03:53:34;;;;;;;7.55;5.10;;;;;;;19.50;100.00;101466.16;4989049;28;20030;-92
2023/08/12 03:55:59;;;;;;;9.57;5.57;;;;;;;19.49;100.00;101461.81;4993728;28;20038;-91
2023/08/12 03:58:24;;;;;;;6.88;5.15;;;;;;;19.48;100.00;101465.38;4993706;28;20505;-92
2023/08/12 04:00:49;;;;;;;9.13;5.03;;;;;;;19.46;100.00;101469.91;4991077;28;20355;-91
2023/08/12 04:03:15;;;;;;;8.20;5.03;;;;;;;19.43;100.00;101462.16;4993552;28;20068;-91
2023/08/12 04:05:51;;;;;;;8.18;4.53;;;;;;;19.40;100.00;101467.59;4993308;28;20463;-92
2023/08/12 04:08:18;;;;;;;5.75;4.35;;;;;;;19.38;100.00;101465.06;4976869;28;20126;-91
2023/08/12 04:10:45;;;;;;;6.93;4.45;;;;;;;19.37;100.00;101467.75;4987726;28;20022;-91
2023/08/12 04:13:10;;;;;;;6.10;3.97;;;;;;;19.35;100.00;101459.06;4987332;28;20026;-92
2023/08/12 04:15:36;;;;;;;7.07;4.32;;;;;;;19.36;100.00;101460.78;4994042;28;20038;-91
2023/08/12 04:18:01;;;;;;;5.97;4.47;;;;;;;19.34;100.00;101454.72;4992535;28;20037;-91
2023/08/12 04:20:26;;;;;;;7.47;4.53;;;;;;;19.34;100.00;101462.63;4974475;28;20045;-93
2023/08/12 04:22:51;;;;;;;6.78;4.57;;;;;;;19.34;100.00;101457.34;4991937;28;20040;-91
2023/08/12 04:25:17;;;;;;;7.00;4.28;;;;;;;19.34;100.00;101446.81;4992819;28;20038;-91
2023/08/12 04:27:42;;;;;;;8.35;4.93;;;;;;;19.34;100.00;101441.53;4976192;28;20076;-91
2023/08/12 04:30:08;;;;;;;7.60;4.53;;;;;;;19.37;100.00;101436.09;4994914;28;20022;-91
2023/08/12 04:32:33;;;;;;;7.22;4.80;;;;;;;19.38;100.00;101432.53;4994629;28;20119;-92
2023/08/12 04:34:58;;;;;;;6.65;4.45;;;;;;;19.38;100.00;101428.13;4992281;28;20022;-91
2023/08/12 04:37:24;;;;;;;7.35;4.88;;;;;;;19.40;100.00;101425.38;4994010;28;20030;-91
2023/08/12 04:39:50;;;;;;;8.73;4.65;;;;;;;19.40;100.00;101425.38;4994541;28;20430;-90
2023/08/12 04:42:15;;;;;;;8.27;4.50;;;;;;;19.40;100.00;101435.94;4982024;28;20072;-91
2023/08/12 04:44:41;;;;;;;6.90;4.75;;;;;;;19.40;100.00;101435.94;4974390;28;20101;-91
2023/08/12 04:47:06;;;;;;;7.70;4.60;;;;;;;19.39;100.00;101435.06;4987363;28;20035;-91
2023/08/12 04:49:31;;;;;;;6.88;4.68;;;;;;;19.39;100.00;101434.22;4992806;28;20066;-92
2023/08/12 04:51:57;;;;;;;6.88;4.70;;;;;;;19.37;100.00;101433.47;4993362;28;20037;-91
2023/08/12 04:54:22;;;;;;;7.32;4.50;;;;;;;19.36;100.00;101435.25;4989535;28;20030;-92
2023/08/12 04:56:47;;;;;;;6.45;4.68;;;;;;;19.35;100.00;101432.69;4972384;28;20025;-92
2023/08/12 04:59:13;;;;;;;7.80;4.78;;;;;;;19.35;100.00;101430.03;4973729;28;20027;-92
2023/08/12 05:01:38;;;;;;;7.47;4.95;;;;;;;19.33;100.00;101429.28;4971843;28;20050;-92
2023/08/12 05:04:03;;;;;;;7.60;5.55;;;;;;;19.32;100.00;101428.44;4973220;28;20026;-91
2023/08/12 05:06:29;;;;;;;9.52;5.22;;;;;;;19.30;100.00;101432.94;4972490;28;20470;-91
2023/08/12 05:08:54;;;;;;;9.57;4.95;;;;;;;19.29;100.00;101425.94;4973143;28;20038;-92
2023/08/12 05:11:19;;;;;;;6.68;5.13;;;;;;;19.27;100.00;101425.19;4972352;28;20482;-92
2023/08/12 05:13:44;;;;;;;7.75;5.15;;;;;;;19.24;100.00;101426.22;4972425;28;20149;-91
2023/08/12 05:16:10;;;;;;;6.40;4.65;;;;;;;19.21;100.00;101421.09;4968755;28;20045;-90
2023/08/12 05:18:35;;;;;;;7.40;4.88;;;;;;;19.18;100.00;101408.06;4964570;28;20026;-90
2023/08/12 05:21:00;;;;;;;8.07;5.10;;;;;;;19.17;100.00;101409.00;4968707;28;20540;-90
2023/08/12 05:23:26;;;;;;;8.30;5.15;;;;;;;19.15;100.00;101405.56;4969894;28;20085;-91
2023/08/12 05:25:51;;;;;;;9.35;4.85;;;;;;;19.12;100.00;101400.50;4971275;28;20118;-87
2023/08/12 05:28:17;;;;;;;6.43;4.40;;;;;;;19.11;100.00;101393.50;4969984;28;20041;-90
2023/08/12 05:30:42;;;;;;;6.78;4.18;;;;;;;19.08;100.00;101397.13;4967758;28;20026;-88
2023/08/12 05:33:07;;;;;;;6.60;3.83;;;;;;;19.05;100.00;101393.81;4971314;28;20114;-88
2023/08/12 05:35:34;;;;;;;5.35;3.75;;;;;;;19.03;100.00;101401.81;4970925;28;20050;-89
2023/08/12 05:37:59;;;;;;;5.43;3.80;;;;;;;19.02;100.00;101415.06;4970948;28;20039;-87
2023/08/12 05:40:24;;;;;;;5.13;3.67;;;;;;;19.01;100.00;101410.72;4978939;28;20049;-88
2023/08/12 05:42:49;;;;;;;6.25;3.60;;;;;;;19.00;100.00;101395.84;4988897;28;20037;-88
2023/08/12 05:45:15;;;;;;;5.50;4.00;;;;;;;19.00;100.00;101380.00;4990545;28;20107;-88
2023/08/12 05:47:40;;;;;;;5.20;3.85;;;;;;;18.98;100.00;101397.69;4990249;28;20030;-89
2023/08/12 05:50:06;;;;;;;6.60;3.70;;;;;;;18.98;100.00;101406.47;4990439;28;20030;-90
2023/08/12 05:52:31;;;;;;;5.20;3.63;;;;;;;18.97;100.00;101394.22;4988757;28;20030;-89
2023/08/12 05:54:58;;;;;;;5.50;3.47;;;;;;;18.93;100.00;101401.41;4973576;28;20066;-88
2023/08/12 05:57:23;;;;;;;4.60;3.42;;;;;;;18.92;100.00;101399.72;4989768;28;20462;-89
2023/08/12 05:59:48;;;;;;;5.40;3.35;;;;;;;18.91;100.00;101405.91;4987978;28;20026;-88
2023/08/12 06:02:14;;;;;;;6.57;3.22;;;;;;;18.90;100.00;101396.31;4988255;28;20693;-88
2023/08/12 06:04:39;;;;;;;4.50;3.22;;;;;;;18.90;100.00;101385.75;4987066;28;20077;-89
2023/08/12 06:07:04;;;;;;;4.50;3.15;;;;;;;18.89;100.00;101389.31;4987872;28;20030;-95
2023/08/12 06:09:29;;;;;;;4.63;3.15;;;;;;;18.88;100.00;101377.06;4987094;28;20044;-89
2023/08/12 06:11:55;;;;;;;4.70;3.13;;;;;;;18.88;100.00;101377.06;4989420;28;20038;-90
2023/08/12 06:14:20;;;;;;;4.32;3.17;;;;;;;18.89;100.00;101376.13;4988897;28;20025;-89
2023/08/12 06:16:45;;;;;;;4.78;2.80;;;;;;;18.90;100.00;101380.47;4988649;28;20377;-89
2023/08/12 06:19:10;;;;;;;4.28;2.90;;;;;;;18.90;100.00;101376.97;4989323;28;20019;-90
2023/08/12 06:21:36;;;;;;;3.75;2.72;;;;;;;18.91;100.00;101382.19;4992008;28;20050;-89
2023/08/12 06:24:01;;;;;;;4.43;3.00;;;;;;;18.91;100.00;101378.69;4990803;28;20161;-88
2023/08/12 06:26:26;;;;;;;4.03;2.72;;;;;;;18.90;100.00;101375.22;4993173;28;20041;-89
2023/08/12 06:28:52;;;;;;;3.80;2.78;;;;;;;18.89;100.00;101372.63;4993722;28;20030;-88
2023/08/12 06:31:17;;;;;;;3.85;2.92;;;;;;;18.90;100.00;101371.72;4992325;28;20511;-89
2023/08/12 06:33:42;;;;;;;4.13;2.40;;;;;;;18.89;100.00;101357.69;4992182;28;20053;-89
2023/08/12 06:36:07;;;;;;;3.95;2.63;;;;;;;18.90;100.00;101351.47;4992281;28;20053;-90
2023/08/12 06:38:33;;;;;;;5.78;2.60;;;;;;;18.92;100.00;101356.66;4991004;28;20086;-89
2023/08/12 06:40:58;;;;;;;3.78;2.25;;;;;;;18.92;100.00;101352.25;4989781;28;20092;-89
2023/08/12 06:43:23;;;;;;;3.75;2.58;;;;;;;18.94;100.00;101350.44;4992824;28;20548;-92
2023/08/12 06:45:49;;;;;;;3.15;2.30;;;;;;;18.96;100.00;101353.81;4992678;28;20105;-90
2023/08/12 06:48:14;;;;;;;3.75;2.40;;;;;;;18.95;100.00;101352.13;4989760;28;20048;-88
2023/08/12 06:50:39;;;;;;;3.40;2.30;;;;;;;18.94;100.00;101350.44;4992179;28;20378;-87
2023/08/12 06:53:04;;;;;;;3.08;2.17;;;;;;;18.94;100.00;101353.06;4991246;28;20046;-88
2023/08/12 06:55:30;;;;;;;2.92;2.20;;;;;;;18.96;100.00;101352.97;4991739;28;20530;-89
2023/08/12 06:57:55;;;;;;;2.53;2.08;;;;;;;18.99;100.00;101346.66;4991660;28;20060;-88
2023/08/12 07:00:21;;;;;;;3.15;2.30;;;;;;;19.01;100.00;101342.16;4991977;28;20022;-90
2023/08/12 07:02:46;;;;;;;3.45;2.00;;;;;;;19.05;100.00;101331.38;4988908;28;20710;-93
2023/08/12 07:05:11;;;;;;;2.20;1.77;;;;;;;19.08;100.00;101336.47;4990905;28;20026;-90
2023/08/12 07:07:36;;;;;;;2.53;1.90;;;;;;;19.09;100.00;101332.91;4992463;28;20030;-92
2023/08/12 07:10:03;;;;;;;3.13;1.90;;;;;;;19.14;100.00;101324.75;4990767;28;20034;-89
2023/08/12 07:12:28;;;;;;;2.97;2.10;;;;;;;19.20;100.00;101328.88;4990483;28;20030;-88
2023/08/12 07:14:53;;;;;;;2.78;1.85;;;;;;;19.24;100.00;101325.09;4990681;28;20085;-90
2023/08/12 07:17:19;;;;;;;2.33;2.00;;;;;;;19.28;100.00;101331.09;4992295;28;20037;-90
2023/08/12 07:19:44;;;;;;;1.98;1.70;;;;;;;19.31;100.00;101326.47;4992059;28;20026;-90
2023/08/12 07:22:09;;;;;;;1.95;1.75;;;;;;;19.35;100.00;101317.47;4991352;28;20045;-92
2023/08/12 07:24:35;;;;;;;2.33;2.00;;;;;;;19.37;100.00;101322.66;4990066;28;20088;-92
2023/08/12 07:27:00;;;;;;;2.67;2.00;;;;;;;19.36;100.00;101320.94;4989455;28;20038;-89
2023/08/12 07:29:25;;;;;;;2.70;1.88;;;;;;;19.36;100.00;101320.94;4991272;28;20100;-89
2023/08/12 07:31:52;;;;;;;3.08;1.90;;;;;;;19.36;100.00;101320.94;4988050;28;20027;-91
2023/08/12 07:34:17;;;;;;;2.40;2.03;;;;;;;19.34;100.00;101320.16;4990244;28;20037;-91
2023/08/12 07:36:42;;;;;;;2.50;2.10;;;;;;;19.31;100.00;101321.19;4990164;28;20026;-90
2023/08/12 07:39:08;;;;;;;2.63;2.00;;;;;;;19.31;100.00;101328.25;4990946;28;20647;-89
2023/08/12 07:41:33;;;;;;;3.22;2.38;;;;;;;19.31;100.00;101322.97;4990311;28;20054;-89
2023/08/12 07:43:58;;;;;;;2.58;2.30;;;;;;;19.30;100.00;101332.69;4989078;28;20037;-89
2023/08/12 07:46:24;;;;;;;2.45;2.05;;;;;;;19.32;100.00;101325.53;4991822;28;20022;-93
2023/08/12 07:48:49;;;;;;;3.15;2.58;;;;;;;19.34;100.00;101322.81;4989618;28;20034;-90
2023/08/12 07:51:14;;;;;;;3.30;2.45;;;;;;;19.36;100.00;101324.44;4987176;28;20026;-91
2023/08/12 07:53:40;;;;;;;2.97;2.60;;;;;;;19.37;100.00;101323.50;4989077;28;20034;-90
2023/08/12 07:56:05;;;;;;;2.83;2.50;;;;;;;19.40;100.00;101322.47;4987951;28;20030;-92
2023/08/12 07:58:31;;;;;;;2.90;2.35;;;;;;;19.42;100.00;101318.81;4987462;28;20018;-90
2023/08/12 08:00:56;;;;;;;2.65;2.40;;;;;;;19.45;100.00;101317.81;4989157;28;20025;-91
2023/08/12 08:03:21;;;;;;;3.00;2.55;;;;;;;19.47;100.00;101310.63;4991121;28;20058;-89
2023/08/12 08:05:47;;;;;;;2.60;2.30;;;;;;;19.50;100.00;101309.63;4989267;28;20060;-91
2023/08/12 08:08:12;;;;;;;2.70;2.28;;;;;;;19.50;100.00;101309.63;4987399;28;20022;-91
2023/08/12 08:10:38;;;;;;;2.92;2.33;;;;;;;19.51;100.00;101312.16;4988704;28;20450;-92
2023/08/12 08:13:03;;;;;;;3.10;2.03;;;;;;;19.53;100.00;101315.56;4990222;28;20411;-91
2023/08/12 08:15:28;;;;;;;2.42;2.10;;;;;;;19.55;100.00;101324.25;4990176;28;20098;-90
2023/08/12 08:17:54;;;;;;;3.30;2.03;;;;;;;19.55;100.00;101316.34;4989853;28;20545;-90
2023/08/12 08:20:19;;;;;;;2.60;1.90;;;;;;;19.56;100.00;101331.25;4970448;28;20049;-91
2023/08/12 08:22:44;;;;;;;2.25;1.85;;;;;;;19.61;100.00;101332.78;4990073;28;20114;-89
2023/08/12 08:25:09;;;;;;;2.08;1.88;;;;;;;19.64;100.00;101336.09;4988786;28;20025;-90
2023/08/12 08:27:35;;;;;;;2.00;1.77;;;;;;;19.67;100.00;101340.34;4988828;28;20041;-91
2023/08/12 08:30:00;;;;;;;2.05;1.75;;;;;;;19.70;100.00;101338.41;4990476;28;20022;-89
2023/08/12 08:32:25;;;;;;;1.95;1.73;;;;;;;19.76;100.00;101337.19;4986759;28;20547;-89
2023/08/12 08:34:51;;;;;;;2.58;1.52;;;;;;;19.80;100.00;101330.81;4989339;28;20030;-89
2023/08/12 08:37:16;;;;;;;2.42;1.50;;;;;;;19.83;100.00;101333.25;4990746;28;20026;-90
2023/08/12 08:39:41;;;;;;;2.75;1.42;;;;;;;19.86;100.00;101327.78;4987305;28;20037;-89
2023/08/12 08:42:09;;;;;;;1.60;1.42;;;;;;;19.91;100.00;101330.19;4989675;28;20018;-90
2023/08/12 08:44:39;;;;;;;1.70;1.35;;;;;;;19.97;100.00;101331.66;4987323;28;20034;-90
2023/08/12 08:47:06;;;;;;;2.33;1.70;;;;;;;20.05;100.00;101341.78;4987729;28;20056;-91
2023/08/12 08:49:31;;;;;;;2.33;1.75;;;;;;;20.12;100.00;101349.25;4989494;28;20037;-91
2023/08/12 08:51:58;;;;;;;2.30;2.10;;;;;;;20.17;100.00;101346.34;4987958;28;20034;-90
2023/08/12 08:54:24;;;;;;;2.70;2.05;;;;;;;20.20;100.00;101358.50;4989492;28;20053;-90
2023/08/12 08:56:49;;;;;;;4.45;2.38;;;;;;;20.20;100.00;101362.00;4987920;28;20462;-91
2023/08/12 08:59:14;;;;;;;4.68;2.67;;;;;;;20.20;100.00;101367.31;4990331;28;20153;-89
2023/08/12 09:01:41;;;;;;;2.95;2.65;;;;;;;20.23;100.00;101360.97;4989702;28;20106;-90
2023/08/12 09:04:07;;;;;;;4.82;2.85;;;;;;;20.26;100.00;101359.00;4989451;28;20041;-91
2023/08/12 09:06:36;;;;;;;3.03;2.72;;;;;;;20.28;100.00;101364.22;4987314;28;20022;-91
2023/08/12 09:09:02;;;;;;;5.47;3.25;;;;;;;20.28;100.00;101356.28;4989695;28;20436;-91
2023/08/12 09:11:28;;;;;;;4.53;3.33;;;;;;;20.29;100.00;101366.75;4987092;28;20474;-90
2023/08/12 09:13:53;;;;;;;3.03;2.72;;;;;;;20.30;100.00;101363.16;4985395;28;20034;-89
2023/08/12 09:16:19;;;;;;;5.10;2.85;;;;;;;20.35;100.00;101365.53;4988203;28;20680;-91
2023/08/12 09:18:44;;;;;;;3.60;3.20;;;;;;;20.40;100.00;101374.06;4986778;28;20026;-91
2023/08/12 09:21:10;;;;;;;3.10;2.80;;;;;;;20.43;100.00;101371.22;4985633;28;20042;-91
2023/08/12 09:23:38;;;;;;;3.70;2.70;;;;;;;20.45;100.00;101372.00;4985875;28;20497;-89
2023/08/12 09:26:12;;;;;;;2.72;2.42;;;;;;;20.52;100.00;101376.91;4988448;28;20529;-91
2023/08/12 09:28:37;;;;;;;2.72;2.35;;;;;;;20.55;100.00;101380.22;4987319;28;20038;-89
2023/08/12 09:31:03;;;;;;;2.70;2.50;;;;;;;20.55;100.00;101385.53;4983715;28;20169;-90
2023/08/12 09:33:28;;;;;;;2.47;2.28;;;;;;;20.52;100.00;101387.47;4987328;28;20171;-91
2023/08/12 09:35:56;;;;;;;2.83;2.22;;;;;;;20.45;100.00;101387.84;4988837;28;20027;-90
2023/08/12 09:38:21;;;;;;;2.55;2.10;;;;;;;20.42;100.00;101398.59;4968181;28;20164;-91
2023/08/12 09:40:47;;;;;;;2.30;2.10;;;;;;;20.36;100.00;101403.41;4987825;28;20133;-90
2023/08/12 09:43:13;;;;;;;2.25;1.80;;;;;;;20.25;100.00;101407.50;4984256;28;20030;-92
2023/08/12 09:45:38;;;;;;;2.20;1.90;;;;;;;20.23;100.00;101396.19;4986998;28;20034;-91
2023/08/12 09:48:04;;;;;;;2.35;1.63;;;;;;;20.32;100.00;101393.00;4986932;28;20496;-90
2023/08/12 09:50:29;;;;;;;1.95;1.85;;;;;;;20.42;100.00;101393.31;4984365;28;20151;-89
2023/08/12 09:52:55;;;;;;;1.70;1.60;;;;;;;20.50;100.00;101402.56;4984053;28;20040;-88
2023/08/12 09:55:23;;;;;;;2.08;1.38;;;;;;;20.54;100.00;101406.75;4991078;28;20492;-91
2023/08/12 09:57:52;;;;;;;1.95;1.42;;;;;;;20.53;100.00;101391.81;4990104;28;20041;-93
2023/08/12 10:00:20;;;;;;;1.85;1.45;;;;;;;20.57;100.00;101390.69;4985770;28;20054;-93
2023/08/12 10:02:47;;;;;;;1.67;1.30;;;;;;;20.60;100.00;101394.00;4982199;28;20038;-90
2023/08/12 10:05:19;;;;;;;1.45;1.35;;;;;;;20.64;99.96;101402.63;4984899;28;20371;-92
2023/08/12 10:07:45;;;;;;;1.40;1.30;;;;;;;20.62;99.87;101399.22;4985289;28;20045;-91
2023/08/12 10:10:12;;;;;;;2.00;1.60;;;;;;;20.57;99.16;101407.44;4985540;28;20101;-94
2023/08/12 10:12:38;;;;;;;1.90;1.80;;;;;;;20.50;99.16;101415.78;4969602;28;20096;-93
2023/08/12 10:15:05;;;;;;;1.70;1.60;;;;;;;20.45;98.28;101409.00;4966314;28;20478;-92
2023/08/12 10:17:31;;;;;;;2.22;1.77;;;;;;;20.52;99.19;101417.41;4988880;28;20382;-90
2023/08/12 10:19:57;;;;;;;3.15;2.17;;;;;;;20.52;97.16;101414.78;4989352;28;20540;-94
2023/08/12 10:22:25;;;;;;;2.35;2.15;;;;;;;20.56;97.50;101424.22;4987102;28;20038;-89
2023/08/12 10:24:50;;;;;;;2.45;2.08;;;;;;;20.61;96.51;101421.31;4984770;28;21236;-90
2023/08/12 10:27:17;;;;;;;3.88;1.92;;;;;;;20.70;97.02;101419.91;4984330;28;20486;-90
2023/08/12 10:29:43;;;;;;;2.47;1.90;;;;;;;20.73;95.04;101417.94;4982263;28;20034;-93
2023/08/12 10:32:09;;;;;;;2.47;1.77;;;;;;;20.67;94.63;101418.28;4984837;28;20033;-92
2023/08/12 10:34:34;;;;;;;2.65;2.10;;;;;;;20.59;95.08;101423.19;4983993;28;20030;-90
2023/08/12 10:37:03;;;;;;;1.80;1.70;;;;;;;20.53;93.80;101420.88;4984248;28;20109;-90
2023/08/12 10:39:31;;;;;;;1.85;1.50;;;;;;;20.54;94.22;101412.03;4981910;28;20035;-93
2023/08/12 10:41:56;;;;;;;1.60;1.40;;;;;;;20.56;94.79;101415.44;4959907;28;20500;-92
2023/08/12 10:44:26;;;;;;;1.50;1.40;;;;;;;20.55;94.16;101419.00;4962206;28;20038;-91
2023/08/12 10:46:53;;;;;;;2.22;1.63;;;;;;;20.56;94.35;101410.16;4961550;28;20438;-89
2023/08/12 10:49:23;;;;;;;3.03;2.00;;;;;;;20.57;94.78;101401.28;4963792;28;20083;-95
2023/08/12 10:51:51;;;;;;;2.42;1.60;;;;;;;20.60;95.40;101409.88;4963004;28;20034;-91
2023/08/12 10:54:30;;;;;;;2.75;1.80;;;;;;;20.67;94.97;101417.44;4965666;28;20027;-91
2023/08/12 10:57:01;;;;;;;2.22;1.95;;;;;;;20.75;94.59;101421.38;4968750;28;20066;-91
2023/08/12 10:59:44;;;;;;;2.50;1.55;;;;;;;20.82;93.79;101427.13;4967828;28;20038;-92
2023/08/12 11:02:21;;;;;;;2.45;1.70;;;;;;;20.83;92.92;101425.34;4966908;28;20070;-91
2023/08/12 11:05:08;;;;;;;2.40;1.60;;;;;;;20.87;92.40;101426.84;4967476;28;21562;-93
2023/08/12 11:07:47;;;;;;;2.78;1.13;;;;;;;20.84;88.75;101424.38;4972242;28;20160;-91
2023/08/12 11:10:15;;;;;;;4.20;1.10;;;;;;;20.87;89.30;101426.84;4970017;28;20495;-91
2023/08/12 11:12:47;;;;;;;2.25;0.95;;;;;;;20.89;89.64;101417.91;4970249;28;20416;-91